aviador You're here:

KCUB Decoded Metar

COLUMBIA-OWENS in SC, USA
Report Time2017-09-26 02:53:00
UTC Time2017-09-26 03:51:40
Flight Rules vfr VFR
WindCalm
Visibility9999 m
Phenomena:N/A
Clouds:Broken 046 Hf
Expected CloudBase > 2,000 ft AGL from Temp-Dew spread
Ceiling4,600 ft
Temp24°C (ISA +9)
Dew Point19°C (74% RH)
QNH1014 hPa
Density Alt1,529 ft
Elevation184 ft
Report Wrong Elevation
Raw Report
KCUB 260253Z AUTO 00000KT 10SM BKN046 24/19 A2993 RMK AO2 SLP132
T02440194 51011=

Extra information for KCUB:More info

Metar Taf Metar & Taf Last 4 Metars F.Rules Stats Wind Profile Meteogram Temp Stats Airport Information Weather charts Add Link Nearby VenuesMetar ALERT Operation Metar Decoded Social comments

AIRNAV info for KCUB